sensor_id;sensor_type;location;lat;lon;timestamp;pressure;altitude;pressure_sealevel;temperature;humidity
7532;BME280;3807;49.030;8.714;2023-12-04T00:01:13;99480.81;;;-0.74;71.33
7532;BME280;3807;49.030;8.714;2023-12-04T00:03:38;99463.28;;;-0.75;71.23
7532;BME280;3807;49.030;8.714;2023-12-04T00:06:04;99451.69;;;-0.70;70.90
7532;BME280;3807;49.030;8.714;2023-12-04T00:08:29;99436.66;;;-0.73;71.36
7532;BME280;3807;49.030;8.714;2023-12-04T00:10:54;99424.91;;;-0.77;71.55
7532;BME280;3807;49.030;8.714;2023-12-04T00:13:20;99429.09;;;-0.78;71.12
7532;BME280;3807;49.030;8.714;2023-12-04T00:15:45;99422.41;;;-0.80;71.15
7532;BME280;3807;49.030;8.714;2023-12-04T00:18:11;99427.41;;;-0.79;71.42
7532;BME280;3807;49.030;8.714;2023-12-04T00:20:37;99429.13;;;-0.76;71.43
7532;BME280;3807;49.030;8.714;2023-12-04T00:23:02;99431.66;;;-0.73;70.95
7532;BME280;3807;49.030;8.714;2023-12-04T00:25:27;99435.69;;;-0.81;71.36
7532;BME280;3807;49.030;8.714;2023-12-04T00:27:53;99432.41;;;-0.80;71.43
7532;BME280;3807;49.030;8.714;2023-12-04T00:30:18;99424.97;;;-0.74;71.18
7532;BME280;3807;49.030;8.714;2023-12-04T00:32:43;99426.53;;;-0.81;70.93
7532;BME280;3807;49.030;8.714;2023-12-04T00:35:09;99419.81;;;-0.85;71.64
7532;BME280;3807;49.030;8.714;2023-12-04T00:37:34;99416.69;;;-0.70;71.21
7532;BME280;3807;49.030;8.714;2023-12-04T00:40:04;99409.91;;;-0.80;71.01
7532;BME280;3807;49.030;8.714;2023-12-04T00:42:30;99407.31;;;-0.85;71.37
7532;BME280;3807;49.030;8.714;2023-12-04T00:44:55;99404.00;;;-0.84;71.62
7532;BME280;3807;49.030;8.714;2023-12-04T00:47:20;99394.72;;;-0.94;71.87
7532;BME280;3807;49.030;8.714;2023-12-04T00:49:46;99396.50;;;-0.84;71.40
7532;BME280;3807;49.030;8.714;2023-12-04T00:52:11;99392.34;;;-0.83;71.31
7532;BME280;3807;49.030;8.714;2023-12-04T00:54:39;99394.81;;;-0.86;71.33
7532;BME280;3807;49.030;8.714;2023-12-04T00:57:05;99391.28;;;-0.99;71.49
7532;BME280;3807;49.030;8.714;2023-12-04T00:59:31;99395.59;;;-0.90;71.15
7532;BME280;3807;49.030;8.714;2023-12-04T01:01:56;99392.25;;;-0.89;71.46
7532;BME280;3807;49.030;8.714;2023-12-04T01:04:22;99394.72;;;-0.92;71.53
7532;BME280;3807;49.030;8.714;2023-12-04T01:06:47;99387.22;;;-0.94;71.57
7532;BME280;3807;49.030;8.714;2023-12-04T01:09:12;99387.16;;;-0.97;71.42
7532;BME280;3807;49.030;8.714;2023-12-04T01:11:37;99386.44;;;-0.88;71.11
7532;BME280;3807;49.030;8.714;2023-12-04T01:14:04;99390.06;;;-0.68;70.47
7532;BME280;3807;49.030;8.714;2023-12-04T01:16:29;99384.84;;;-0.83;70.78
7532;BME280;3807;49.030;8.714;2023-12-04T01:18:55;99377.22;;;-0.91;71.01
7532;BME280;3807;49.030;8.714;2023-12-04T01:21:20;99373.94;;;-0.88;71.08
7532;BME280;3807;49.030;8.714;2023-12-04T01:23:45;99364.81;;;-0.86;70.91
7532;BME280;3807;49.030;8.714;2023-12-04T01:26:11;99371.44;;;-0.88;71.52
7532;BME280;3807;49.030;8.714;2023-12-04T01:28:37;99367.19;;;-0.97;71.11
7532;BME280;3807;49.030;8.714;2023-12-04T01:31:02;99367.28;;;-0.89;71.16
7532;BME280;3807;49.030;8.714;2023-12-04T01:33:27;99363.94;;;-0.88;70.88
7532;BME280;3807;49.030;8.714;2023-12-04T01:35:53;99357.28;;;-0.89;71.06
7532;BME280;3807;49.030;8.714;2023-12-04T01:38:18;99355.47;;;-0.98;71.01
7532;BME280;3807;49.030;8.714;2023-12-04T01:40:44;99356.34;;;-0.94;71.11
7532;BME280;3807;49.030;8.714;2023-12-04T01:43:09;99352.22;;;-0.94;71.44
7532;BME280;3807;49.030;8.714;2023-12-04T01:45:34;99347.22;;;-0.91;71.46
7532;BME280;3807;49.030;8.714;2023-12-04T01:48:00;99338.84;;;-0.96;71.54
7532;BME280;3807;49.030;8.714;2023-12-04T01:50:25;99338.94;;;-0.88;70.71
7532;BME280;3807;49.030;8.714;2023-12-04T01:52:52;99341.34;;;-0.94;70.89
7532;BME280;3807;49.030;8.714;2023-12-04T01:55:19;99330.56;;;-0.92;71.07
7532;BME280;3807;49.030;8.714;2023-12-04T01:57:45;99325.56;;;-0.92;71.09
7532;BME280;3807;49.030;8.714;2023-12-04T02:00:11;99338.06;;;-0.92;71.02
7532;BME280;3807;49.030;8.714;2023-12-04T02:02:40;99343.09;;;-0.89;71.15
7532;BME280;3807;49.030;8.714;2023-12-04T02:05:09;99330.53;;;-0.95;71.33
7532;BME280;3807;49.030;8.714;2023-12-04T02:07:35;99335.47;;;-1.00;71.20
7532;BME280;3807;49.030;8.714;2023-12-04T02:10:02;99332.19;;;-0.96;71.53
7532;BME280;3807;49.030;8.714;2023-12-04T02:12:28;99333.94;;;-0.90;71.06
7532;BME280;3807;49.030;8.714;2023-12-04T02:14:54;99322.28;;;-0.88;71.00
7532;BME280;3807;49.030;8.714;2023-12-04T02:17:20;99325.94;;;-0.60;69.74
7532;BME280;3807;49.030;8.714;2023-12-04T02:19:47;99324.13;;;-0.75;69.90
7532;BME280;3807;49.030;8.714;2023-12-04T02:22:12;99318.19;;;-0.81;70.15
7532;BME280;3807;49.030;8.714;2023-12-04T02:24:37;99316.44;;;-0.90;70.52
7532;BME280;3807;49.030;8.714;2023-12-04T02:27:12;99313.13;;;-0.89;70.43
7532;BME280;3807;49.030;8.714;2023-12-04T02:29:46;99311.56;;;-0.79;70.38
7532;BME280;3807;49.030;8.714;2023-12-04T02:32:15;99320.69;;;-0.81;70.05
7532;BME280;3807;49.030;8.714;2023-12-04T02:34:43;99309.78;;;-0.89;70.76
7532;BME280;3807;49.030;8.714;2023-12-04T02:37:10;99304.06;;;-0.78;69.83
7532;BME280;3807;49.030;8.714;2023-12-04T02:39:36;99308.13;;;-0.87;70.63
7532;BME280;3807;49.030;8.714;2023-12-04T02:42:02;99291.44;;;-0.88;70.70
7532;BME280;3807;49.030;8.714;2023-12-04T02:44:28;99300.53;;;-0.97;70.74
7532;BME280;3807;49.030;8.714;2023-12-04T02:46:53;99287.25;;;-0.92;70.83
7532;BME280;3807;49.030;8.714;2023-12-04T02:49:19;99279.00;;;-0.85;70.30
7532;BME280;3807;49.030;8.714;2023-12-04T02:51:44;99273.13;;;-0.87;70.38
7532;BME280;3807;49.030;8.714;2023-12-04T02:54:09;99270.63;;;-0.87;70.37
7532;BME280;3807;49.030;8.714;2023-12-04T02:56:35;99267.25;;;-0.94;70.65
7532;BME280;3807;49.030;8.714;2023-12-04T02:59:00;99266.16;;;-1.13;70.63
7532;BME280;3807;49.030;8.714;2023-12-04T03:01:25;99257.13;;;-1.03;71.21
7532;BME280;3807;49.030;8.714;2023-12-04T03:03:51;99266.25;;;-1.05;71.02
7532;BME280;3807;49.030;8.714;2023-12-04T03:06:16;99243.75;;;-1.07;70.79
7532;BME280;3807;49.030;8.714;2023-12-04T03:08:42;99246.50;;;-0.85;70.53
7532;BME280;3807;49.030;8.714;2023-12-04T03:11:07;99242.41;;;-0.80;69.91
7532;BME280;3807;49.030;8.714;2023-12-04T03:13:34;99237.25;;;-0.92;70.67
7532;BME280;3807;49.030;8.714;2023-12-04T03:15:59;99230.63;;;-0.90;70.43
7532;BME280;3807;49.030;8.714;2023-12-04T03:18:25;99236.50;;;-0.84;70.29
7532;BME280;3807;49.030;8.714;2023-12-04T03:20:51;99219.19;;;-0.68;69.88
7532;BME280;3807;49.030;8.714;2023-12-04T03:23:16;99220.66;;;-0.86;70.04
7532;BME280;3807;49.030;8.714;2023-12-04T03:25:42;99217.41;;;-0.79;69.95
7532;BME280;3807;49.030;8.714;2023-12-04T03:28:07;99220.66;;;-0.86;70.22
7532;BME280;3807;49.030;8.714;2023-12-04T03:30:32;99213.97;;;-0.90;69.89
7532;BME280;3807;49.030;8.714;2023-12-04T03:32:58;99201.50;;;-0.84;70.19
7532;BME280;3807;49.030;8.714;2023-12-04T03:35:23;99206.38;;;-0.98;70.61
7532;BME280;3807;49.030;8.714;2023-12-04T03:37:48;99195.59;;;-0.93;70.10
7532;BME280;3807;49.030;8.714;2023-12-04T03:40:15;99187.31;;;-0.88;70.06
7532;BME280;3807;49.030;8.714;2023-12-04T03:42:41;99198.03;;;-0.98;70.59
7532;BME280;3807;49.030;8.714;2023-12-04T03:45:06;99196.47;;;-0.90;70.26
7532;BME280;3807;49.030;8.714;2023-12-04T03:47:32;99193.19;;;-0.81;69.67
7532;BME280;3807;49.030;8.714;2023-12-04T03:49:57;99196.38;;;-0.96;70.18
7532;BME280;3807;49.030;8.714;2023-12-04T03:52:23;99192.25;;;-0.91;70.14
7532;BME280;3807;49.030;8.714;2023-12-04T03:54:48;99199.78;;;-0.89;70.25
7532;BME280;3807;49.030;8.714;2023-12-04T03:57:13;99193.16;;;-0.86;70.10
7532;BME280;3807;49.030;8.714;2023-12-04T03:59:39;99194.91;;;-0.79;69.68
7532;BME280;3807;49.030;8.714;2023-12-04T04:02:04;99204.84;;;-0.86;69.79
7532;BME280;3807;49.030;8.714;2023-12-04T04:04:29;99208.97;;;-0.88;70.40
7532;BME280;3807;49.030;8.714;2023-12-04T04:06:55;99213.91;;;-0.93;70.24
7532;BME280;3807;49.030;8.714;2023-12-04T04:09:20;99212.22;;;-0.97;69.89
7532;BME280;3807;49.030;8.714;2023-12-04T04:11:46;99213.91;;;-0.93;70.46
7532;BME280;3807;49.030;8.714;2023-12-04T04:14:11;99217.28;;;-0.89;70.16
7532;BME280;3807;49.030;8.714;2023-12-04T04:16:37;99219.69;;;-0.99;70.11
7532;BME280;3807;49.030;8.714;2023-12-04T04:19:02;99208.88;;;-0.96;70.51
7532;BME280;3807;49.030;8.714;2023-12-04T04:21:27;99199.66;;;-1.02;70.80
7532;BME280;3807;49.030;8.714;2023-12-04T04:23:53;99203.06;;;-0.95;70.61
7532;BME280;3807;49.030;8.714;2023-12-04T04:26:19;99209.69;;;-1.00;70.52
7532;BME280;3807;49.030;8.714;2023-12-04T04:28:44;99204.75;;;-0.92;70.45
7532;BME280;3807;49.030;8.714;2023-12-04T04:31:09;99199.72;;;-0.96;70.18
7532;BME280;3807;49.030;8.714;2023-12-04T04:33:35;99188.97;;;-0.88;70.00
7532;BME280;3807;49.030;8.714;2023-12-04T04:36:00;99188.09;;;-0.93;70.05
7532;BME280;3807;49.030;8.714;2023-12-04T04:38:25;99192.31;;;-0.88;70.01
7532;BME280;3807;49.030;8.714;2023-12-04T04:40:51;99186.47;;;-0.88;69.71
7532;BME280;3807;49.030;8.714;2023-12-04T04:43:18;99196.41;;;-0.94;70.60
7532;BME280;3807;49.030;8.714;2023-12-04T04:45:43;99184.75;;;-0.94;70.23
7532;BME280;3807;49.030;8.714;2023-12-04T04:48:08;99194.75;;;-0.92;70.22
7532;BME280;3807;49.030;8.714;2023-12-04T04:50:34;99183.09;;;-0.93;70.49
7532;BME280;3807;49.030;8.714;2023-12-04T04:53:00;99170.63;;;-0.90;70.34
7532;BME280;3807;49.030;8.714;2023-12-04T04:55:25;99161.53;;;-0.81;69.69
7532;BME280;3807;49.030;8.714;2023-12-04T04:57:50;99165.75;;;-0.80;69.53
7532;BME280;3807;49.030;8.714;2023-12-04T05:00:17;99157.41;;;-0.80;69.61
7532;BME280;3807;49.030;8.714;2023-12-04T05:02:42;99159.00;;;-0.84;69.90
7532;BME280;3807;49.030;8.714;2023-12-04T05:05:07;99149.00;;;-0.87;70.05
7532;BME280;3807;49.030;8.714;2023-12-04T05:07:33;99144.84;;;-0.86;69.77
7532;BME280;3807;49.030;8.714;2023-12-04T05:09:58;99147.41;;;-0.77;69.81
7532;BME280;3807;49.030;8.714;2023-12-04T05:12:23;99143.38;;;-0.63;69.07
7532;BME280;3807;49.030;8.714;2023-12-04T05:14:49;99141.63;;;-0.70;69.03
7532;BME280;3807;49.030;8.714;2023-12-04T05:17:14;99147.44;;;-0.76;69.41
7532;BME280;3807;49.030;8.714;2023-12-04T05:19:39;99139.88;;;-0.83;69.85
7532;BME280;3807;49.030;8.714;2023-12-04T05:22:05;99145.66;;;-0.86;70.07
7532;BME280;3807;49.030;8.714;2023-12-04T05:24:31;99137.41;;;-0.77;69.50
7532;BME280;3807;49.030;8.714;2023-12-04T05:26:56;99145.69;;;-0.84;70.07
7532;BME280;3807;49.030;8.714;2023-12-04T05:29:21;99153.22;;;-0.81;69.99
7532;BME280;3807;49.030;8.714;2023-12-04T05:31:47;99145.75;;;-0.78;69.58
7532;BME280;3807;49.030;8.714;2023-12-04T05:34:12;99143.19;;;-0.84;70.13
7532;BME280;3807;49.030;8.714;2023-12-04T05:36:37;99144.94;;;-0.74;69.75
7532;BME280;3807;49.030;8.714;2023-12-04T05:39:03;99153.22;;;-0.81;69.58
7532;BME280;3807;49.030;8.714;2023-12-04T05:41:29;99152.41;;;-0.77;69.37
7532;BME280;3807;49.030;8.714;2023-12-04T05:43:55;99160.63;;;-0.90;69.83
7532;BME280;3807;49.030;8.714;2023-12-04T05:46:20;99166.28;;;-1.05;70.62
7532;BME280;3807;49.030;8.714;2023-12-04T05:48:53;99160.50;;;-1.04;70.66
7532;BME280;3807;49.030;8.714;2023-12-04T05:51:18;99153.88;;;-0.99;70.71
7532;BME280;3807;49.030;8.714;2023-12-04T05:53:43;99153.91;;;-0.98;70.86
7532;BME280;3807;49.030;8.714;2023-12-04T05:56:09;99155.38;;;-1.12;70.99
7532;BME280;3807;49.030;8.714;2023-12-04T05:58:35;99153.00;;;-1.01;71.22
7532;BME280;3807;49.030;8.714;2023-12-04T06:01:00;99147.09;;;-1.09;71.67
7532;BME280;3807;49.030;8.714;2023-12-04T06:03:25;99157.19;;;-0.99;70.84
7532;BME280;3807;49.030;8.714;2023-12-04T06:05:51;99155.63;;;-0.90;70.45
7532;BME280;3807;49.030;8.714;2023-12-04T06:08:16;99163.63;;;-1.19;71.66
7532;BME280;3807;49.030;8.714;2023-12-04T06:10:41;99156.38;;;-0.99;70.94
7532;BME280;3807;49.030;8.714;2023-12-04T06:13:07;99149.69;;;-0.99;71.15
7532;BME280;3807;49.030;8.714;2023-12-04T06:15:32;99138.00;;;-1.03;70.94
7532;BME280;3807;49.030;8.714;2023-12-04T06:17:58;99138.91;;;-0.98;70.70
7532;BME280;3807;49.030;8.714;2023-12-04T06:20:23;99137.28;;;-0.94;70.95
7532;BME280;3807;49.030;8.714;2023-12-04T06:22:49;99124.66;;;-1.05;70.83
7532;BME280;3807;49.030;8.714;2023-12-04T06:25:15;99117.25;;;-0.97;71.13
7532;BME280;3807;49.030;8.714;2023-12-04T06:27:40;99116.34;;;-1.02;70.80
7532;BME280;3807;49.030;8.714;2023-12-04T06:30:06;99116.38;;;-1.01;71.02
7532;BME280;3807;49.030;8.714;2023-12-04T06:32:32;99113.88;;;-1.01;71.05
7532;BME280;3807;49.030;8.714;2023-12-04T06:34:58;99081.34;;;-1.07;71.19
7532;BME280;3807;49.030;8.714;2023-12-04T06:37:23;99084.75;;;-0.97;70.87
7532;BME280;3807;49.030;8.714;2023-12-04T06:39:49;99088.91;;;-0.96;71.22
7532;BME280;3807;49.030;8.714;2023-12-04T06:42:18;99091.44;;;-0.93;71.01
7532;BME280;3807;49.030;8.714;2023-12-04T06:44:43;99084.72;;;-0.99;70.76
7532;BME280;3807;49.030;8.714;2023-12-04T06:47:09;99085.63;;;-0.92;70.66
7532;BME280;3807;49.030;8.714;2023-12-04T06:49:37;99082.25;;;-0.97;70.90
7532;BME280;3807;49.030;8.714;2023-12-04T06:52:02;99073.94;;;-0.98;70.98
7532;BME280;3807;49.030;8.714;2023-12-04T06:54:28;99066.50;;;-0.88;70.68
7532;BME280;3807;49.030;8.714;2023-12-04T06:56:54;99056.44;;;-0.94;70.89
7532;BME280;3807;49.030;8.714;2023-12-04T06:59:19;99057.25;;;-1.00;71.10
7532;BME280;3807;49.030;8.714;2023-12-04T07:01:45;99068.94;;;-0.98;71.14
7532;BME280;3807;49.030;8.714;2023-12-04T07:04:10;99059.75;;;-0.96;70.92
7532;BME280;3807;49.030;8.714;2023-12-04T07:06:36;99053.91;;;-0.99;71.03
7532;BME280;3807;49.030;8.714;2023-12-04T07:09:02;99053.94;;;-0.94;71.06
7532;BME280;3807;49.030;8.714;2023-12-04T07:11:27;99049.97;;;-0.71;70.59
7532;BME280;3807;49.030;8.714;2023-12-04T07:13:53;99037.47;;;-0.71;69.98
7532;BME280;3807;49.030;8.714;2023-12-04T07:16:18;99027.47;;;-0.73;69.93
7532;BME280;3807;49.030;8.714;2023-12-04T07:18:43;99028.34;;;-0.63;69.63
7532;BME280;3807;49.030;8.714;2023-12-04T07:21:09;99019.94;;;-0.74;69.86
7532;BME280;3807;49.030;8.714;2023-12-04T07:23:35;99016.63;;;-0.72;69.97
7532;BME280;3807;49.030;8.714;2023-12-04T07:26:00;99019.97;;;-0.71;70.11
7532;BME280;3807;49.030;8.714;2023-12-04T07:28:26;99017.47;;;-0.66;70.52
7532;BME280;3807;49.030;8.714;2023-12-04T07:30:51;99004.91;;;-0.79;70.50
7532;BME280;3807;49.030;8.714;2023-12-04T07:33:16;99006.59;;;-0.76;70.51
7532;BME280;3807;49.030;8.714;2023-12-04T07:35:43;99004.06;;;-0.81;70.63
7532;BME280;3807;49.030;8.714;2023-12-04T07:38:08;98992.47;;;-0.69;70.32
7532;BME280;3807;49.030;8.714;2023-12-04T07:40:33;98990.84;;;-0.64;69.90
7532;BME280;3807;49.030;8.714;2023-12-04T07:42:59;99004.25;;;-0.50;69.76
7532;BME280;3807;49.030;8.714;2023-12-04T07:45:24;99030.88;;;-0.60;70.21
7532;BME280;3807;49.030;8.714;2023-12-04T07:47:49;99051.78;;;-0.45;69.45
7532;BME280;3807;49.030;8.714;2023-12-04T07:50:15;99062.63;;;-0.51;69.87
7532;BME280;3807;49.030;8.714;2023-12-04T07:52:41;99068.41;;;-0.57;69.46
7532;BME280;3807;49.030;8.714;2023-12-04T07:55:07;99073.47;;;-0.46;69.71
7532;BME280;3807;49.030;8.714;2023-12-04T07:57:32;99059.31;;;-0.47;69.35
7532;BME280;3807;49.030;8.714;2023-12-04T07:59:57;99060.22;;;-0.37;69.21
7532;BME280;3807;49.030;8.714;2023-12-04T08:02:23;99049.41;;;-0.29;68.86
7532;BME280;3807;49.030;8.714;2023-12-04T08:04:48;99024.41;;;-0.26;68.71
7532;BME280;3807;49.030;8.714;2023-12-04T08:07:13;99013.56;;;-0.21;68.45
7532;BME280;3807;49.030;8.714;2023-12-04T08:09:39;99011.91;;;-0.21;68.48
7532;BME280;3807;49.030;8.714;2023-12-04T08:12:04;98997.69;;;-0.33;68.80
7532;BME280;3807;49.030;8.714;2023-12-04T08:14:30;98989.34;;;-0.29;69.13
7532;BME280;3807;49.030;8.714;2023-12-04T08:16:55;98989.41;;;-0.22;69.02
7532;BME280;3807;49.030;8.714;2023-12-04T08:19:20;98971.03;;;-0.31;68.73
7532;BME280;3807;49.030;8.714;2023-12-04T08:21:46;98975.16;;;-0.36;69.42
7532;BME280;3807;49.030;8.714;2023-12-04T08:24:11;98962.63;;;-0.36;69.09
7532;BME280;3807;49.030;8.714;2023-12-04T08:26:37;98966.84;;;-0.30;68.80
7532;BME280;3807;49.030;8.714;2023-12-04T08:29:02;98974.22;;;-0.53;70.26
7532;BME280;3807;49.030;8.714;2023-12-04T08:31:27;98970.22;;;-0.20;68.84
7532;BME280;3807;49.030;8.714;2023-12-04T08:33:53;98967.69;;;-0.27;69.21
7532;BME280;3807;49.030;8.714;2023-12-04T08:36:19;98956.78;;;-0.42;69.88
7532;BME280;3807;49.030;8.714;2023-12-04T08:38:44;98963.44;;;-0.44;70.10
7532;BME280;3807;49.030;8.714;2023-12-04T08:41:10;98962.72;;;-0.16;68.87
7532;BME280;3807;49.030;8.714;2023-12-04T08:43:35;98955.28;;;-0.07;68.50
7532;BME280;3807;49.030;8.714;2023-12-04T08:46:00;98951.94;;;-0.03;68.18
7532;BME280;3807;49.030;8.714;2023-12-04T08:48:26;98959.53;;;0.25;67.93
7532;BME280;3807;49.030;8.714;2023-12-04T08:50:51;98966.16;;;0.17;68.02
7532;BME280;3807;49.030;8.714;2023-12-04T08:53:17;98964.47;;;0.07;67.90
7532;BME280;3807;49.030;8.714;2023-12-04T08:55:42;98971.16;;;0.08;67.84
7532;BME280;3807;49.030;8.714;2023-12-04T08:58:07;98985.34;;;0.12;67.83
7532;BME280;3807;49.030;8.714;2023-12-04T09:00:33;98993.72;;;0.11;68.46
7532;BME280;3807;49.030;8.714;2023-12-04T09:03:01;98996.19;;;0.08;68.66
7532;BME280;3807;49.030;8.714;2023-12-04T09:05:26;98987.81;;;0.03;68.29
7532;BME280;3807;49.030;8.714;2023-12-04T09:07:51;98976.16;;;0.00;68.37
7532;BME280;3807;49.030;8.714;2023-12-04T09:10:16;98970.31;;;0.09;68.39
7532;BME280;3807;49.030;8.714;2023-12-04T09:12:42;98977.00;;;0.08;68.67
7532;BME280;3807;49.030;8.714;2023-12-04T09:15:07;98977.88;;;0.27;67.91
7532;BME280;3807;49.030;8.714;2023-12-04T09:17:32;98970.34;;;0.19;67.67
7532;BME280;3807;49.030;8.714;2023-12-04T09:19:58;98985.34;;;0.12;68.19
7532;BME280;3807;49.030;8.714;2023-12-04T09:22:23;98970.34;;;0.16;68.06
7532;BME280;3807;49.030;8.714;2023-12-04T09:24:49;98980.38;;;0.24;68.28
7532;BME280;3807;49.030;8.714;2023-12-04T09:27:15;98983.69;;;0.20;68.62
7532;BME280;3807;49.030;8.714;2023-12-04T09:29:41;98976.19;;;0.17;68.49
7532;BME280;3807;49.030;8.714;2023-12-04T09:32:06;98978.72;;;0.29;68.28
7532;BME280;3807;49.030;8.714;2023-12-04T09:34:31;98984.53;;;0.19;68.62
7532;BME280;3807;49.030;8.714;2023-12-04T09:36:57;98982.94;;;0.42;68.32
7532;BME280;3807;49.030;8.714;2023-12-04T09:39:23;99004.63;;;0.36;68.00
7532;BME280;3807;49.030;8.714;2023-12-04T09:41:49;98996.25;;;0.38;68.02
7532;BME280;3807;49.030;8.714;2023-12-04T09:44:14;99000.41;;;0.22;68.34
7532;BME280;3807;49.030;8.714;2023-12-04T09:46:41;98987.91;;;0.22;68.70
7532;BME280;3807;49.030;8.714;2023-12-04T09:49:07;98980.41;;;0.35;68.12
7532;BME280;3807;49.030;8.714;2023-12-04T09:51:33;98966.19;;;0.26;68.92
7532;BME280;3807;49.030;8.714;2023-12-04T09:54:02;98990.47;;;0.79;67.27
7532;BME280;3807;49.030;8.714;2023-12-04T09:56:29;98958.75;;;0.57;67.65
7532;BME280;3807;49.030;8.714;2023-12-04T09:58:58;98975.44;;;0.65;67.52
7532;BME280;3807;49.030;8.714;2023-12-04T10:01:24;98942.03;;;0.77;67.99
7532;BME280;3807;49.030;8.714;2023-12-04T10:03:50;98951.22;;;0.54;67.94
7532;BME280;3807;49.030;8.714;2023-12-04T10:06:16;98932.84;;;0.62;67.91
7532;BME280;3807;49.030;8.714;2023-12-04T10:08:44;98939.53;;;0.74;67.63
7532;BME280;3807;49.030;8.714;2023-12-04T10:11:11;98959.56;;;0.79;67.77
7532;BME280;3807;49.030;8.714;2023-12-04T10:13:36;98977.13;;;0.86;67.69
7532;BME280;3807;49.030;8.714;2023-12-04T10:16:02;98977.94;;;0.68;67.99
7532;BME280;3807;49.030;8.714;2023-12-04T10:18:29;98977.97;;;0.99;67.42
7532;BME280;3807;49.030;8.714;2023-12-04T10:20:56;98982.13;;;0.80;67.60
7532;BME280;3807;49.030;8.714;2023-12-04T10:23:21;98972.94;;;0.96;67.73
7532;BME280;3807;49.030;8.714;2023-12-04T10:25:50;98972.94;;;0.87;67.77
7532;BME280;3807;49.030;8.714;2023-12-04T10:28:16;98967.09;;;0.86;67.37
7532;BME280;3807;49.030;8.714;2023-12-04T10:30:42;98964.59;;;0.63;68.20
7532;BME280;3807;49.030;8.714;2023-12-04T10:33:08;98958.72;;;0.43;68.93
7532;BME280;3807;49.030;8.714;2023-12-04T10:35:35;98951.22;;;0.64;68.92
7532;BME280;3807;49.030;8.714;2023-12-04T10:38:05;98939.53;;;0.77;68.42
7532;BME280;3807;49.030;8.714;2023-12-04T10:40:32;98929.50;;;0.83;67.95
7532;BME280;3807;49.030;8.714;2023-12-04T10:45:44;98909.41;;;1.06;67.51
7532;BME280;3807;49.030;8.714;2023-12-04T10:48:11;98911.06;;;1.15;67.21
7532;BME280;3807;49.030;8.714;2023-12-04T10:50:38;98898.53;;;1.04;67.78
7532;BME280;3807;49.030;8.714;2023-12-04T10:53:05;98896.06;;;0.97;68.07
7532;BME280;3807;49.030;8.714;2023-12-04T10:55:31;98886.00;;;1.16;67.76
7532;BME280;3807;49.030;8.714;2023-12-04T10:57:57;98888.56;;;0.92;68.06
7532;BME280;3807;49.030;8.714;2023-12-04T11:00:24;98875.97;;;1.16;67.32
7532;BME280;3807;49.030;8.714;2023-12-04T11:02:52;98875.09;;;1.27;67.30
7532;BME280;3807;49.030;8.714;2023-12-04T11:05:20;98875.09;;;1.25;67.17
7532;BME280;3807;49.030;8.714;2023-12-04T11:07:50;98878.38;;;1.39;67.42
7532;BME280;3807;49.030;8.714;2023-12-04T11:10:23;98871.72;;;1.37;67.15
7532;BME280;3807;49.030;8.714;2023-12-04T11:12:57;98880.81;;;1.56;66.86
7532;BME280;3807;49.030;8.714;2023-12-04T11:15:24;98888.44;;;1.38;67.45
7532;BME280;3807;49.030;8.714;2023-12-04T11:17:54;98885.13;;;1.21;68.07
7532;BME280;3807;49.030;8.714;2023-12-04T11:20:24;98878.47;;;1.23;67.79
7532;BME280;3807;49.030;8.714;2023-12-04T11:22:53;98858.41;;;1.15;67.72
7532;BME280;3807;49.030;8.714;2023-12-04T11:25:20;98862.50;;;1.37;68.06
7532;BME280;3807;49.030;8.714;2023-12-04T11:27:48;98858.34;;;1.29;67.04
7532;BME280;3807;49.030;8.714;2023-12-04T11:30:14;98855.00;;;1.31;67.29
7532;BME280;3807;49.030;8.714;2023-12-04T11:32:48;98845.72;;;1.53;67.98
7532;BME280;3807;49.030;8.714;2023-12-04T11:35:18;98846.59;;;1.45;67.41
7532;BME280;3807;49.030;8.714;2023-12-04T11:37:46;98829.88;;;1.42;68.18
7532;BME280;3807;49.030;8.714;2023-12-04T11:40:15;98818.13;;;1.49;67.70
7532;BME280;3807;49.030;8.714;2023-12-04T11:42:41;98813.06;;;1.59;67.88
7532;BME280;3807;49.030;8.714;2023-12-04T11:45:07;98801.41;;;1.52;66.94
7532;BME280;3807;49.030;8.714;2023-12-04T11:47:55;98792.97;;;1.64;67.04
7532;BME280;3807;49.030;8.714;2023-12-04T11:50:21;98786.25;;;1.66;67.94
7532;BME280;3807;49.030;8.714;2023-12-04T11:52:47;98779.63;;;1.57;67.22
7532;BME280;3807;49.030;8.714;2023-12-04T11:55:15;98771.25;;;1.58;67.39
7532;BME280;3807;49.030;8.714;2023-12-04T11:57:41;98760.22;;;1.78;67.28
7532;BME280;3807;49.030;8.714;2023-12-04T12:00:10;98766.03;;;1.84;67.27
7532;BME280;3807;49.030;8.714;2023-12-04T12:02:48;98769.34;;;1.96;67.97
7532;BME280;3807;49.030;8.714;2023-12-04T12:05:14;98768.59;;;1.81;66.53
7532;BME280;3807;49.030;8.714;2023-12-04T12:07:39;98758.50;;;1.87;66.57
7532;BME280;3807;49.030;8.714;2023-12-04T12:10:05;98757.69;;;1.88;66.81
7532;BME280;3807;49.030;8.714;2023-12-04T12:12:31;98749.34;;;1.82;67.17
7532;BME280;3807;49.030;8.714;2023-12-04T12:14:57;98750.06;;;1.99;66.81
7532;BME280;3807;49.030;8.714;2023-12-04T12:17:23;98740.16;;;1.79;66.59
7532;BME280;3807;49.030;8.714;2023-12-04T12:19:48;98738.34;;;1.95;67.56
7532;BME280;3807;49.030;8.714;2023-12-04T12:22:13;98724.94;;;1.98;67.23
7532;BME280;3807;49.030;8.714;2023-12-04T12:24:39;98718.31;;;1.90;67.29
7532;BME280;3807;49.030;8.714;2023-12-04T12:27:05;98714.94;;;1.93;67.47
7532;BME280;3807;49.030;8.714;2023-12-04T12:29:30;98705.59;;;2.09;67.21
7532;BME280;3807;49.030;8.714;2023-12-04T12:31:56;98699.81;;;2.02;67.04
7532;BME280;3807;49.030;8.714;2023-12-04T12:34:21;98695.63;;;2.03;67.23
7532;BME280;3807;49.030;8.714;2023-12-04T12:36:47;98689.78;;;1.98;67.09
7532;BME280;3807;49.030;8.714;2023-12-04T12:39:13;98693.00;;;2.12;66.98
7532;BME280;3807;49.030;8.714;2023-12-04T12:41:39;98676.38;;;1.99;67.79
7532;BME280;3807;49.030;8.714;2023-12-04T12:44:04;98674.69;;;2.04;67.26
7532;BME280;3807;49.030;8.714;2023-12-04T12:46:30;98677.09;;;2.11;67.01
7532;BME280;3807;49.030;8.714;2023-12-04T12:48:56;98673.75;;;2.12;66.96
7532;BME280;3807;49.030;8.714;2023-12-04T12:51:23;98675.56;;;2.00;67.52
7532;BME280;3807;49.030;8.714;2023-12-04T12:53:49;98670.63;;;1.89;67.78
7532;BME280;3807;49.030;8.714;2023-12-04T12:56:14;98664.66;;;2.02;67.19
7532;BME280;3807;49.030;8.714;2023-12-04T12:58:41;98663.91;;;1.91;68.09
7532;BME280;3807;49.030;8.714;2023-12-04T13:01:10;98661.28;;;2.03;68.08
7532;BME280;3807;49.030;8.714;2023-12-04T13:03:35;98653.75;;;2.02;68.19
7532;BME280;3807;49.030;8.714;2023-12-04T13:06:01;98648.75;;;1.99;68.10
7532;BME280;3807;49.030;8.714;2023-12-04T13:08:26;98648.66;;;2.11;67.85
7532;BME280;3807;49.030;8.714;2023-12-04T13:10:53;98646.94;;;2.14;68.13
7532;BME280;3807;49.030;8.714;2023-12-04T13:13:18;98635.91;;;2.26;67.89
7532;BME280;3807;49.030;8.714;2023-12-04T13:15:43;98641.03;;;2.19;68.40
7532;BME280;3807;49.030;8.714;2023-12-04T13:18:09;98637.72;;;2.15;68.74
7532;BME280;3807;49.030;8.714;2023-12-04T13:20:34;98632.72;;;2.13;68.39